sensor_id;sensor_type;location;lat;lon;timestamp;P1;durP1;ratioP1;P2;durP2;ratioP2
58992;SDS011;44782;0.000;0.000;2023-05-02T00:00:26;2.20;;;2.00;;
58992;SDS011;44782;0.000;0.000;2023-05-02T00:02:42;1.90;;;1.80;;
58992;SDS011;44782;0.000;0.000;2023-05-02T00:04:58;2.03;;;1.93;;
58992;SDS011;44782;0.000;0.000;2023-05-02T00:07:13;2.40;;;2.20;;
58992;SDS011;44782;0.000;0.000;2023-05-02T00:09:29;2.20;;;2.00;;
58992;SDS011;44782;0.000;0.000;2023-05-02T00:11:45;2.10;;;1.90;;
58992;SDS011;44782;0.000;0.000;2023-05-02T00:14:00;2.33;;;2.13;;
58992;SDS011;44782;0.000;0.000;2023-05-02T00:16:16;2.30;;;2.10;;
58992;SDS011;44782;0.000;0.000;2023-05-02T00:18:32;2.70;;;2.00;;
58992;SDS011;44782;0.000;0.000;2023-05-02T00:20:47;2.00;;;1.80;;
58992;SDS011;44782;0.000;0.000;2023-05-02T00:23:04;2.10;;;2.00;;
58992;SDS011;44782;0.000;0.000;2023-05-02T00:25:20;1.93;;;1.83;;
58992;SDS011;44782;0.000;0.000;2023-05-02T00:27:35;2.23;;;2.03;;
58992;SDS011;44782;0.000;0.000;2023-05-02T00:29:52;2.37;;;2.10;;
58992;SDS011;44782;0.000;0.000;2023-05-02T00:32:08;2.10;;;2.00;;
58992;SDS011;44782;0.000;0.000;2023-05-02T00:34:27;1.97;;;1.80;;
58992;SDS011;44782;0.000;0.000;2023-05-02T00:36:44;2.00;;;1.90;;
58992;SDS011;44782;0.000;0.000;2023-05-02T00:39:00;2.53;;;2.10;;
58992;SDS011;44782;0.000;0.000;2023-05-02T00:41:16;1.97;;;1.87;;
58992;SDS011;44782;0.000;0.000;2023-05-02T00:43:32;2.83;;;2.20;;
58992;SDS011;44782;0.000;0.000;2023-05-02T00:45:47;2.23;;;2.10;;
58992;SDS011;44782;0.000;0.000;2023-05-02T00:48:04;1.93;;;1.83;;
58992;SDS011;44782;0.000;0.000;2023-05-02T00:50:21;1.90;;;1.80;;
58992;SDS011;44782;0.000;0.000;2023-05-02T00:52:36;2.00;;;1.90;;
58992;SDS011;44782;0.000;0.000;2023-05-02T00:54:52;2.07;;;1.90;;
58992;SDS011;44782;0.000;0.000;2023-05-02T00:57:08;2.03;;;1.93;;
58992;SDS011;44782;0.000;0.000;2023-05-02T00:59:23;2.17;;;2.07;;
58992;SDS011;44782;0.000;0.000;2023-05-02T01:07:00;2.17;;;2.07;;
58992;SDS011;44782;0.000;0.000;2023-05-02T01:09:47;2.07;;;1.90;;
58992;SDS011;44782;0.000;0.000;2023-05-02T01:12:25;2.00;;;1.80;;
58992;SDS011;44782;0.000;0.000;2023-05-02T01:14:46;2.00;;;1.90;;
58992;SDS011;44782;0.000;0.000;2023-05-02T01:17:05;2.23;;;2.10;;
58992;SDS011;44782;0.000;0.000;2023-05-02T01:19:27;2.20;;;1.97;;
58992;SDS011;44782;0.000;0.000;2023-05-02T01:21:47;2.00;;;1.90;;
58992;SDS011;44782;0.000;0.000;2023-05-02T01:29:11;2.10;;;2.00;;
58992;SDS011;44782;0.000;0.000;2023-05-02T01:31:37;1.87;;;1.77;;
58992;SDS011;44782;0.000;0.000;2023-05-02T01:33:54;2.03;;;1.93;;
58992;SDS011;44782;0.000;0.000;2023-05-02T01:36:13;2.10;;;2.00;;
58992;SDS011;44782;0.000;0.000;2023-05-02T01:38:29;1.80;;;1.70;;
58992;SDS011;44782;0.000;0.000;2023-05-02T01:40:46;2.23;;;2.10;;
58992;SDS011;44782;0.000;0.000;2023-05-02T01:43:05;2.00;;;1.87;;
58992;SDS011;44782;0.000;0.000;2023-05-02T01:45:22;2.20;;;2.00;;
58992;SDS011;44782;0.000;0.000;2023-05-02T01:47:39;1.77;;;1.67;;
58992;SDS011;44782;0.000;0.000;2023-05-02T01:49:58;2.10;;;2.00;;
58992;SDS011;44782;0.000;0.000;2023-05-02T01:52:15;1.90;;;1.80;;
58992;SDS011;44782;0.000;0.000;2023-05-02T01:54:34;1.60;;;1.50;;
58992;SDS011;44782;0.000;0.000;2023-05-02T01:56:51;2.07;;;1.87;;
58992;SDS011;44782;0.000;0.000;2023-05-02T01:59:07;1.70;;;1.60;;
58992;SDS011;44782;0.000;0.000;2023-05-02T02:01:26;1.83;;;1.70;;
58992;SDS011;44782;0.000;0.000;2023-05-02T02:03:45;2.13;;;1.93;;
58992;SDS011;44782;0.000;0.000;2023-05-02T02:06:01;2.10;;;2.00;;
58992;SDS011;44782;0.000;0.000;2023-05-02T02:08:18;2.20;;;2.00;;
58992;SDS011;44782;0.000;0.000;2023-05-02T02:10:35;1.80;;;1.70;;
58992;SDS011;44782;0.000;0.000;2023-05-02T02:13:05;1.87;;;1.77;;
58992;SDS011;44782;0.000;0.000;2023-05-02T02:15:28;1.90;;;1.80;;
58992;SDS011;44782;0.000;0.000;2023-05-02T02:17:48;1.93;;;1.83;;
58992;SDS011;44782;0.000;0.000;2023-05-02T02:20:13;1.97;;;1.83;;
58992;SDS011;44782;0.000;0.000;2023-05-02T02:22:30;1.80;;;1.70;;
58992;SDS011;44782;0.000;0.000;2023-05-02T02:24:51;1.83;;;1.73;;
58992;SDS011;44782;0.000;0.000;2023-05-02T02:27:08;1.87;;;1.77;;
58992;SDS011;44782;0.000;0.000;2023-05-02T02:29:24;2.00;;;1.90;;
58992;SDS011;44782;0.000;0.000;2023-05-02T02:31:39;1.80;;;1.70;;
58992;SDS011;44782;0.000;0.000;2023-05-02T02:33:55;1.90;;;1.80;;
58992;SDS011;44782;0.000;0.000;2023-05-02T02:38:46;1.73;;;1.63;;
58992;SDS011;44782;0.000;0.000;2023-05-02T02:41:27;1.80;;;1.70;;
58992;SDS011;44782;0.000;0.000;2023-05-02T02:43:59;1.80;;;1.70;;
58992;SDS011;44782;0.000;0.000;2023-05-02T02:49:05;1.80;;;1.70;;
58992;SDS011;44782;0.000;0.000;2023-05-02T02:51:49;1.90;;;1.80;;
58992;SDS011;44782;0.000;0.000;2023-05-02T02:56:40;1.80;;;1.70;;
58992;SDS011;44782;0.000;0.000;2023-05-02T02:59:03;1.80;;;1.70;;
58992;SDS011;44782;0.000;0.000;2023-05-02T03:01:26;1.70;;;1.60;;
58992;SDS011;44782;0.000;0.000;2023-05-02T03:03:44;1.80;;;1.70;;
58992;SDS011;44782;0.000;0.000;2023-05-02T03:06:02;1.93;;;1.83;;
58992;SDS011;44782;0.000;0.000;2023-05-02T03:08:18;1.80;;;1.70;;
58992;SDS011;44782;0.000;0.000;2023-05-02T03:10:34;2.07;;;1.90;;
58992;SDS011;44782;0.000;0.000;2023-05-02T03:12:50;1.90;;;1.80;;
58992;SDS011;44782;0.000;0.000;2023-05-02T03:15:24;1.77;;;1.67;;
58992;SDS011;44782;0.000;0.000;2023-05-02T03:17:55;1.77;;;1.67;;
58992;SDS011;44782;0.000;0.000;2023-05-02T03:20:11;1.90;;;1.80;;
58992;SDS011;44782;0.000;0.000;2023-05-02T03:22:27;1.70;;;1.60;;
58992;SDS011;44782;0.000;0.000;2023-05-02T03:24:42;2.07;;;1.83;;
58992;SDS011;44782;0.000;0.000;2023-05-02T03:26:58;1.80;;;1.70;;
58992;SDS011;44782;0.000;0.000;2023-05-02T03:29:14;1.80;;;1.70;;
58992;SDS011;44782;0.000;0.000;2023-05-02T03:31:30;1.80;;;1.70;;
58992;SDS011;44782;0.000;0.000;2023-05-02T03:33:46;1.80;;;1.70;;
58992;SDS011;44782;0.000;0.000;2023-05-02T03:36:03;1.80;;;1.70;;
58992;SDS011;44782;0.000;0.000;2023-05-02T03:38:19;1.70;;;1.60;;
58992;SDS011;44782;0.000;0.000;2023-05-02T03:40:34;2.00;;;1.90;;
58992;SDS011;44782;0.000;0.000;2023-05-02T03:42:50;1.70;;;1.60;;
58992;SDS011;44782;0.000;0.000;2023-05-02T03:45:06;1.70;;;1.60;;
58992;SDS011;44782;0.000;0.000;2023-05-02T03:47:23;1.70;;;1.60;;
58992;SDS011;44782;0.000;0.000;2023-05-02T03:49:39;1.70;;;1.60;;
58992;SDS011;44782;0.000;0.000;2023-05-02T03:51:54;1.77;;;1.67;;
58992;SDS011;44782;0.000;0.000;2023-05-02T03:54:11;1.70;;;1.60;;
58992;SDS011;44782;0.000;0.000;2023-05-02T03:56:26;1.77;;;1.67;;
58992;SDS011;44782;0.000;0.000;2023-05-02T03:58:42;1.70;;;1.60;;
58992;SDS011;44782;0.000;0.000;2023-05-02T04:00:58;1.60;;;1.50;;
58992;SDS011;44782;0.000;0.000;2023-05-02T04:03:14;1.93;;;1.70;;
58992;SDS011;44782;0.000;0.000;2023-05-02T04:05:30;1.67;;;1.57;;
58992;SDS011;44782;0.000;0.000;2023-05-02T04:07:46;1.60;;;1.50;;
58992;SDS011;44782;0.000;0.000;2023-05-02T04:10:02;1.70;;;1.60;;
58992;SDS011;44782;0.000;0.000;2023-05-02T04:12:17;2.00;;;1.80;;
58992;SDS011;44782;0.000;0.000;2023-05-02T04:14:34;1.60;;;1.50;;
58992;SDS011;44782;0.000;0.000;2023-05-02T04:16:50;1.80;;;1.70;;
58992;SDS011;44782;0.000;0.000;2023-05-02T04:19:06;1.93;;;1.83;;
58992;SDS011;44782;0.000;0.000;2023-05-02T04:21:21;1.80;;;1.70;;
58992;SDS011;44782;0.000;0.000;2023-05-02T04:23:37;1.90;;;1.80;;
58992;SDS011;44782;0.000;0.000;2023-05-02T04:25:53;1.80;;;1.70;;
58992;SDS011;44782;0.000;0.000;2023-05-02T04:28:10;1.80;;;1.70;;
58992;SDS011;44782;0.000;0.000;2023-05-02T04:30:26;1.67;;;1.57;;
58992;SDS011;44782;0.000;0.000;2023-05-02T04:32:41;1.90;;;1.80;;
58992;SDS011;44782;0.000;0.000;2023-05-02T04:34:57;1.80;;;1.70;;
58992;SDS011;44782;0.000;0.000;2023-05-02T04:37:12;1.77;;;1.67;;
58992;SDS011;44782;0.000;0.000;2023-05-02T04:39:28;1.83;;;1.73;;
58992;SDS011;44782;0.000;0.000;2023-05-02T04:41:44;1.80;;;1.70;;
58992;SDS011;44782;0.000;0.000;2023-05-02T04:44:00;1.80;;;1.70;;
58992;SDS011;44782;0.000;0.000;2023-05-02T04:46:16;1.90;;;1.80;;
58992;SDS011;44782;0.000;0.000;2023-05-02T04:48:32;2.07;;;1.90;;
58992;SDS011;44782;0.000;0.000;2023-05-02T04:50:48;2.00;;;1.80;;
58992;SDS011;44782;0.000;0.000;2023-05-02T04:53:04;1.90;;;1.70;;
58992;SDS011;44782;0.000;0.000;2023-05-02T04:55:19;1.90;;;1.80;;
58992;SDS011;44782;0.000;0.000;2023-05-02T04:57:35;1.97;;;1.87;;
58992;SDS011;44782;0.000;0.000;2023-05-02T04:59:51;1.90;;;1.80;;
58992;SDS011;44782;0.000;0.000;2023-05-02T05:02:06;1.90;;;1.80;;
58992;SDS011;44782;0.000;0.000;2023-05-02T05:04:23;1.93;;;1.83;;
58992;SDS011;44782;0.000;0.000;2023-05-02T05:06:38;1.90;;;1.70;;
58992;SDS011;44782;0.000;0.000;2023-05-02T05:08:54;1.90;;;1.80;;
58992;SDS011;44782;0.000;0.000;2023-05-02T05:11:10;1.90;;;1.80;;
58992;SDS011;44782;0.000;0.000;2023-05-02T05:13:26;2.20;;;2.10;;
58992;SDS011;44782;0.000;0.000;2023-05-02T05:15:42;2.20;;;2.00;;
58992;SDS011;44782;0.000;0.000;2023-05-02T05:17:58;1.97;;;1.87;;
58992;SDS011;44782;0.000;0.000;2023-05-02T05:20:14;2.30;;;2.10;;
58992;SDS011;44782;0.000;0.000;2023-05-02T05:22:29;2.17;;;2.03;;
58992;SDS011;44782;0.000;0.000;2023-05-02T05:24:52;2.23;;;2.03;;
58992;SDS011;44782;0.000;0.000;2023-05-02T05:27:08;2.43;;;2.23;;
58992;SDS011;44782;0.000;0.000;2023-05-02T05:29:24;2.17;;;2.07;;
58992;SDS011;44782;0.000;0.000;2023-05-02T05:31:39;2.40;;;2.20;;
58992;SDS011;44782;0.000;0.000;2023-05-02T05:33:55;2.20;;;2.00;;
58992;SDS011;44782;0.000;0.000;2023-05-02T05:36:11;2.50;;;2.30;;
58992;SDS011;44782;0.000;0.000;2023-05-02T05:38:29;2.60;;;2.40;;
58992;SDS011;44782;0.000;0.000;2023-05-02T05:40:47;2.47;;;2.27;;
58992;SDS011;44782;0.000;0.000;2023-05-02T05:43:03;2.20;;;2.00;;
58992;SDS011;44782;0.000;0.000;2023-05-02T05:45:19;2.50;;;2.30;;
58992;SDS011;44782;0.000;0.000;2023-05-02T05:47:35;2.17;;;2.00;;
58992;SDS011;44782;0.000;0.000;2023-05-02T05:49:51;2.40;;;2.20;;
58992;SDS011;44782;0.000;0.000;2023-05-02T05:52:10;2.20;;;2.10;;
58992;SDS011;44782;0.000;0.000;2023-05-02T05:54:26;2.47;;;2.27;;
58992;SDS011;44782;0.000;0.000;2023-05-02T05:56:41;2.60;;;2.40;;
58992;SDS011;44782;0.000;0.000;2023-05-02T05:58:58;2.50;;;2.30;;
58992;SDS011;44782;0.000;0.000;2023-05-02T06:01:13;2.60;;;2.40;;
58992;SDS011;44782;0.000;0.000;2023-05-02T06:03:29;2.53;;;2.33;;
58992;SDS011;44782;0.000;0.000;2023-05-02T06:05:45;2.80;;;2.60;;
58992;SDS011;44782;0.000;0.000;2023-05-02T06:08:01;2.30;;;2.10;;
58992;SDS011;44782;0.000;0.000;2023-05-02T06:10:17;2.40;;;2.20;;
58992;SDS011;44782;0.000;0.000;2023-05-02T06:12:32;2.50;;;2.30;;
58992;SDS011;44782;0.000;0.000;2023-05-02T06:14:48;2.53;;;2.27;;
58992;SDS011;44782;0.000;0.000;2023-05-02T06:17:04;2.70;;;2.50;;
58992;SDS011;44782;0.000;0.000;2023-05-02T06:19:19;2.53;;;2.33;;
58992;SDS011;44782;0.000;0.000;2023-05-02T06:21:35;2.50;;;2.30;;
58992;SDS011;44782;0.000;0.000;2023-05-02T06:23:52;2.47;;;2.30;;
58992;SDS011;44782;0.000;0.000;2023-05-02T06:26:07;2.50;;;2.30;;
58992;SDS011;44782;0.000;0.000;2023-05-02T06:28:24;2.50;;;2.30;;
58992;SDS011;44782;0.000;0.000;2023-05-02T06:30:39;2.87;;;2.67;;
58992;SDS011;44782;0.000;0.000;2023-05-02T06:32:55;2.37;;;2.27;;
58992;SDS011;44782;0.000;0.000;2023-05-02T06:35:11;2.90;;;2.70;;
58992;SDS011;44782;0.000;0.000;2023-05-02T06:37:26;2.73;;;2.53;;
58992;SDS011;44782;0.000;0.000;2023-05-02T06:39:46;2.70;;;2.50;;
58992;SDS011;44782;0.000;0.000;2023-05-02T06:42:02;2.77;;;2.57;;
58992;SDS011;44782;0.000;0.000;2023-05-02T06:44:17;2.70;;;2.50;;
58992;SDS011;44782;0.000;0.000;2023-05-02T06:46:33;2.70;;;2.50;;
58992;SDS011;44782;0.000;0.000;2023-05-02T06:48:49;2.63;;;2.43;;
58992;SDS011;44782;0.000;0.000;2023-05-02T06:51:05;2.50;;;2.40;;
58992;SDS011;44782;0.000;0.000;2023-05-02T06:53:21;2.83;;;2.63;;
58992;SDS011;44782;0.000;0.000;2023-05-02T06:55:36;2.87;;;2.67;;
58992;SDS011;44782;0.000;0.000;2023-05-02T06:57:52;2.87;;;2.67;;
58992;SDS011;44782;0.000;0.000;2023-05-02T07:00:09;2.67;;;2.47;;
58992;SDS011;44782;0.000;0.000;2023-05-02T07:02:25;2.93;;;2.73;;
58992;SDS011;44782;0.000;0.000;2023-05-02T07:04:40;2.80;;;2.60;;
58992;SDS011;44782;0.000;0.000;2023-05-02T07:06:56;3.97;;;2.90;;
58992;SDS011;44782;0.000;0.000;2023-05-02T07:09:11;2.90;;;2.70;;
58992;SDS011;44782;0.000;0.000;2023-05-02T07:11:27;2.60;;;2.40;;
58992;SDS011;44782;0.000;0.000;2023-05-02T07:13:43;2.93;;;2.73;;
58992;SDS011;44782;0.000;0.000;2023-05-02T07:15:58;3.10;;;2.80;;
58992;SDS011;44782;0.000;0.000;2023-05-02T07:18:14;3.20;;;3.00;;
58992;SDS011;44782;0.000;0.000;2023-05-02T07:20:30;2.90;;;2.70;;
58992;SDS011;44782;0.000;0.000;2023-05-02T07:22:46;2.83;;;2.63;;
58992;SDS011;44782;0.000;0.000;2023-05-02T07:25:02;3.23;;;2.93;;
58992;SDS011;44782;0.000;0.000;2023-05-02T07:27:18;3.40;;;3.20;;
58992;SDS011;44782;0.000;0.000;2023-05-02T07:29:33;3.57;;;3.27;;
58992;SDS011;44782;0.000;0.000;2023-05-02T07:31:49;3.67;;;3.33;;
58992;SDS011;44782;0.000;0.000;2023-05-02T07:34:05;4.27;;;3.87;;
58992;SDS011;44782;0.000;0.000;2023-05-02T07:36:21;4.77;;;4.17;;
58992;SDS011;44782;0.000;0.000;2023-05-02T07:38:37;5.50;;;4.53;;
58992;SDS011;44782;0.000;0.000;2023-05-02T07:40:52;5.53;;;5.03;;
58992;SDS011;44782;0.000;0.000;2023-05-02T07:43:11;5.53;;;5.03;;
58992;SDS011;44782;0.000;0.000;2023-05-02T07:45:28;5.90;;;5.23;;
58992;SDS011;44782;0.000;0.000;2023-05-02T07:47:44;5.53;;;5.03;;
58992;SDS011;44782;0.000;0.000;2023-05-02T07:50:00;5.70;;;5.20;;
58992;SDS011;44782;0.000;0.000;2023-05-02T07:52:18;5.40;;;4.97;;
58992;SDS011;44782;0.000;0.000;2023-05-02T07:54:34;5.60;;;5.10;;
58992;SDS011;44782;0.000;0.000;2023-05-02T07:56:50;5.47;;;4.97;;
58992;SDS011;44782;0.000;0.000;2023-05-02T07:59:06;5.40;;;4.90;;
58992;SDS011;44782;0.000;0.000;2023-05-02T08:01:21;5.10;;;4.70;;
58992;SDS011;44782;0.000;0.000;2023-05-02T08:03:37;5.17;;;4.67;;
58992;SDS011;44782;0.000;0.000;2023-05-02T08:05:53;6.00;;;4.17;;
58992;SDS011;44782;0.000;0.000;2023-05-02T08:08:08;4.43;;;4.07;;
58992;SDS011;44782;0.000;0.000;2023-05-02T08:10:24;4.83;;;4.23;;
58992;SDS011;44782;0.000;0.000;2023-05-02T08:12:40;5.33;;;4.80;;
58992;SDS011;44782;0.000;0.000;2023-05-02T08:14:56;5.03;;;4.63;;
58992;SDS011;44782;0.000;0.000;2023-05-02T08:17:12;6.07;;;4.30;;
58992;SDS011;44782;0.000;0.000;2023-05-02T08:19:28;4.53;;;4.17;;
58992;SDS011;44782;0.000;0.000;2023-05-02T08:21:43;4.33;;;3.93;;
58992;SDS011;44782;0.000;0.000;2023-05-02T08:23:59;4.50;;;4.10;;
58992;SDS011;44782;0.000;0.000;2023-05-02T08:26:15;4.53;;;4.13;;
58992;SDS011;44782;0.000;0.000;2023-05-02T08:28:32;4.73;;;4.10;;
58992;SDS011;44782;0.000;0.000;2023-05-02T08:30:48;4.23;;;3.83;;
58992;SDS011;44782;0.000;0.000;2023-05-02T08:33:04;4.20;;;3.90;;
58992;SDS011;44782;0.000;0.000;2023-05-02T08:35:20;4.73;;;3.87;;
58992;SDS011;44782;0.000;0.000;2023-05-02T08:37:35;5.43;;;3.70;;
58992;SDS011;44782;0.000;0.000;2023-05-02T08:39:51;4.17;;;3.03;;
58992;SDS011;44782;0.000;0.000;2023-05-02T08:42:07;3.10;;;2.80;;
58992;SDS011;44782;0.000;0.000;2023-05-02T08:44:23;2.93;;;2.73;;
58992;SDS011;44782;0.000;0.000;2023-05-02T08:46:39;3.40;;;3.10;;
58992;SDS011;44782;0.000;0.000;2023-05-02T08:48:56;3.03;;;2.73;;
58992;SDS011;44782;0.000;0.000;2023-05-02T08:51:13;4.13;;;2.73;;
58992;SDS011;44782;0.000;0.000;2023-05-02T08:53:31;4.33;;;2.63;;
58992;SDS011;44782;0.000;0.000;2023-05-02T08:55:49;3.13;;;2.83;;
58992;SDS011;44782;0.000;0.000;2023-05-02T08:58:05;5.03;;;2.73;;
58992;SDS011;44782;0.000;0.000;2023-05-02T09:00:23;3.97;;;2.93;;
58992;SDS011;44782;0.000;0.000;2023-05-02T09:05:10;5.10;;;2.93;;
58992;SDS011;44782;0.000;0.000;2023-05-02T09:07:26;3.50;;;2.80;;
58992;SDS011;44782;0.000;0.000;2023-05-02T09:09:42;3.67;;;2.90;;
58992;SDS011;44782;0.000;0.000;2023-05-02T09:11:58;3.33;;;3.03;;
58992;SDS011;44782;0.000;0.000;2023-05-02T09:14:14;3.40;;;3.10;;
58992;SDS011;44782;0.000;0.000;2023-05-02T09:16:30;3.10;;;2.80;;
58992;SDS011;44782;0.000;0.000;2023-05-02T09:18:53;3.13;;;2.83;;
58992;SDS011;44782;0.000;0.000;2023-05-02T09:21:12;5.00;;;3.20;;
58992;SDS011;44782;0.000;0.000;2023-05-02T09:25:58;3.40;;;2.80;;
58992;SDS011;44782;0.000;0.000;2023-05-02T09:28:15;5.03;;;3.20;;
58992;SDS011;44782;0.000;0.000;2023-05-02T09:30:30;3.20;;;2.87;;
58992;SDS011;44782;0.000;0.000;2023-05-02T09:32:47;4.07;;;3.07;;
58992;SDS011;44782;0.000;0.000;2023-05-02T09:35:05;4.00;;;2.83;;
58992;SDS011;44782;0.000;0.000;2023-05-02T09:37:34;3.13;;;2.80;;
58992;SDS011;44782;0.000;0.000;2023-05-02T09:40:03;2.60;;;2.33;;
58992;SDS011;44782;0.000;0.000;2023-05-02T09:42:29;3.17;;;2.73;;
58992;SDS011;44782;0.000;0.000;2023-05-02T09:44:45;2.87;;;2.67;;
58992;SDS011;44782;0.000;0.000;2023-05-02T09:47:01;3.73;;;3.20;;
58992;SDS011;44782;0.000;0.000;2023-05-02T09:49:18;3.43;;;3.13;;
58992;SDS011;44782;0.000;0.000;2023-05-02T09:51:34;3.43;;;3.23;;
58992;SDS011;44782;0.000;0.000;2023-05-02T09:53:50;4.20;;;3.10;;
58992;SDS011;44782;0.000;0.000;2023-05-02T09:56:06;3.60;;;3.30;;
58992;SDS011;44782;0.000;0.000;2023-05-02T09:58:22;3.63;;;2.90;;
58992;SDS011;44782;0.000;0.000;2023-05-02T10:00:39;3.40;;;3.10;;
58992;SDS011;44782;0.000;0.000;2023-05-02T10:02:56;3.30;;;3.00;;
58992;SDS011;44782;0.000;0.000;2023-05-02T10:05:12;3.77;;;3.47;;
58992;SDS011;44782;0.000;0.000;2023-05-02T10:07:28;3.20;;;2.97;;
58992;SDS011;44782;0.000;0.000;2023-05-02T10:09:44;2.80;;;2.60;;
58992;SDS011;44782;0.000;0.000;2023-05-02T10:12:01;3.23;;;3.03;;
58992;SDS011;44782;0.000;0.000;2023-05-02T10:14:23;3.30;;;3.00;;
58992;SDS011;44782;0.000;0.000;2023-05-02T10:16:44;3.03;;;2.83;;
58992;SDS011;44782;0.000;0.000;2023-05-02T10:19:09;3.30;;;3.00;;
58992;SDS011;44782;0.000;0.000;2023-05-02T10:21:29;3.10;;;2.90;;
58992;SDS011;44782;0.000;0.000;2023-05-02T10:23:46;3.80;;;3.40;;
58992;SDS011;44782;0.000;0.000;2023-05-02T10:26:07;3.90;;;3.03;;
58992;SDS011;44782;0.000;0.000;2023-05-02T10:28:28;3.70;;;3.40;;
58992;SDS011;44782;0.000;0.000;2023-05-02T10:30:44;4.10;;;3.47;;
58992;SDS011;44782;0.000;0.000;2023-05-02T10:33:01;3.37;;;3.07;;
58992;SDS011;44782;0.000;0.000;2023-05-02T10:35:17;3.67;;;3.10;;
58992;SDS011;44782;0.000;0.000;2023-05-02T10:37:35;4.73;;;3.80;;
58992;SDS011;44782;0.000;0.000;2023-05-02T10:39:52;3.63;;;3.13;;
58992;SDS011;44782;0.000;0.000;2023-05-02T10:42:08;3.43;;;2.70;;
58992;SDS011;44782;0.000;0.000;2023-05-02T10:44:57;4.50;;;4.10;;
58992;SDS011;44782;0.000;0.000;2023-05-02T10:49:48;3.90;;;3.60;;
58992;SDS011;44782;0.000;0.000;2023-05-02T10:52:29;4.00;;;3.40;;
58992;SDS011;44782;0.000;0.000;2023-05-02T10:54:48;3.90;;;3.60;;
58992;SDS011;44782;0.000;0.000;2023-05-02T10:57:05;5.03;;;3.60;;
58992;SDS011;44782;0.000;0.000;2023-05-02T10:59:25;3.60;;;3.30;;
58992;SDS011;44782;0.000;0.000;2023-05-02T11:01:42;4.00;;;3.70;;
58992;SDS011;44782;0.000;0.000;2023-05-02T11:04:05;3.60;;;3.30;;
58992;SDS011;44782;0.000;0.000;2023-05-02T11:06:22;3.90;;;3.30;;
58992;SDS011;44782;0.000;0.000;2023-05-02T11:08:40;3.60;;;3.30;;
58992;SDS011;44782;0.000;0.000;2023-05-02T11:10:55;3.60;;;3.27;;
58992;SDS011;44782;0.000;0.000;2023-05-02T11:13:11;3.50;;;3.20;;
58992;SDS011;44782;0.000;0.000;2023-05-02T11:18:16;3.57;;;3.10;;
58992;SDS011;44782;0.000;0.000;2023-05-02T11:20:26;3.43;;;3.07;;
58992;SDS011;44782;0.000;0.000;2023-05-02T11:22:43;3.37;;;3.07;;
58992;SDS011;44782;0.000;0.000;2023-05-02T11:25:00;3.83;;;3.47;;
58992;SDS011;44782;0.000;0.000;2023-05-02T11:29:50;3.27;;;3.07;;
58992;SDS011;44782;0.000;0.000;2023-05-02T11:32:07;3.90;;;3.60;;
58992;SDS011;44782;0.000;0.000;2023-05-02T11:34:23;3.10;;;2.90;;
58992;SDS011;44782;0.000;0.000;2023-05-02T11:36:39;3.77;;;3.17;;
58992;SDS011;44782;0.000;0.000;2023-05-02T11:38:55;3.50;;;3.20;;
58992;SDS011;44782;0.000;0.000;2023-05-02T11:41:10;4.17;;;3.17;;
58992;SDS011;44782;0.000;0.000;2023-05-02T11:43:27;3.63;;;2.93;;
58992;SDS011;44782;0.000;0.000;2023-05-02T11:45:43;3.10;;;2.90;;
58992;SDS011;44782;0.000;0.000;2023-05-02T11:47:59;3.33;;;3.07;;
58992;SDS011;44782;0.000;0.000;2023-05-02T11:50:15;3.23;;;2.93;;
58992;SDS011;44782;0.000;0.000;2023-05-02T11:52:38;3.10;;;2.90;;
58992;SDS011;44782;0.000;0.000;2023-05-02T11:54:58;3.30;;;3.00;;
58992;SDS011;44782;0.000;0.000;2023-05-02T11:57:14;3.37;;;3.07;;
58992;SDS011;44782;0.000;0.000;2023-05-02T11:59:30;3.33;;;3.03;;
58992;SDS011;44782;0.000;0.000;2023-05-02T12:02:03;3.10;;;2.90;;
58992;SDS011;44782;0.000;0.000;2023-05-02T12:04:18;3.33;;;3.03;;
58992;SDS011;44782;0.000;0.000;2023-05-02T12:06:37;3.40;;;3.10;;
58992;SDS011;44782;0.000;0.000;2023-05-02T12:09:04;2.97;;;2.77;;
58992;SDS011;44782;0.000;0.000;2023-05-02T12:11:24;3.00;;;2.80;;
58992;SDS011;44782;0.000;0.000;2023-05-02T12:13:44;3.37;;;3.07;;
58992;SDS011;44782;0.000;0.000;2023-05-02T12:16:01;3.53;;;3.20;;
58992;SDS011;44782;0.000;0.000;2023-05-02T12:18:19;3.47;;;3.17;;
58992;SDS011;44782;0.000;0.000;2023-05-02T12:20:37;2.90;;;2.70;;
58992;SDS011;44782;0.000;0.000;2023-05-02T12:22:54;3.27;;;3.00;;
58992;SDS011;44782;0.000;0.000;2023-05-02T12:25:09;3.20;;;3.00;;
58992;SDS011;44782;0.000;0.000;2023-05-02T12:27:25;3.30;;;3.00;;
58992;SDS011;44782;0.000;0.000;2023-05-02T12:29:44;3.37;;;3.07;;
58992;SDS011;44782;0.000;0.000;2023-05-02T12:32:01;3.40;;;3.10;;
58992;SDS011;44782;0.000;0.000;2023-05-02T12:34:30;3.07;;;2.87;;
58992;SDS011;44782;0.000;0.000;2023-05-02T12:36:46;3.20;;;2.90;;
58992;SDS011;44782;0.000;0.000;2023-05-02T12:39:02;3.00;;;2.80;;
58992;SDS011;44782;0.000;0.000;2023-05-02T12:41:19;3.00;;;2.80;;
58992;SDS011;44782;0.000;0.000;2023-05-02T12:43:48;3.07;;;2.87;;
58992;SDS011;44782;0.000;0.000;2023-05-02T12:46:08;3.20;;;2.90;;
58992;SDS011;44782;0.000;0.000;2023-05-02T12:48:25;2.90;;;2.70;;
58992;SDS011;44782;0.000;0.000;2023-05-02T12:50:41;2.83;;;2.63;;
58992;SDS011;44782;0.000;0.000;2023-05-02T12:52:57;3.10;;;2.80;;
58992;SDS011;44782;0.000;0.000;2023-05-02T12:55:14;2.97;;;2.60;;
58992;SDS011;44782;0.000;0.000;2023-05-02T12:57:31;3.30;;;3.00;;
58992;SDS011;44782;0.000;0.000;2023-05-02T12:59:46;2.60;;;2.40;;
58992;SDS011;44782;0.000;0.000;2023-05-02T13:02:02;3.30;;;2.90;;
58992;SDS011;44782;0.000;0.000;2023-05-02T13:04:18;2.90;;;2.60;;
58992;SDS011;44782;0.000;0.000;2023-05-02T13:06:33;3.23;;;2.93;;
58992;SDS011;44782;0.000;0.000;2023-05-02T13:08:51;2.93;;;2.73;;
58992;SDS011;44782;0.000;0.000;2023-05-02T13:11:07;3.43;;;2.60;;
58992;SDS011;44782;0.000;0.000;2023-05-02T13:13:23;3.00;;;2.80;;
58992;SDS011;44782;0.000;0.000;2023-05-02T13:15:38;3.00;;;2.80;;
58992;SDS011;44782;0.000;0.000;2023-05-02T13:17:54;2.70;;;2.50;;
58992;SDS011;44782;0.000;0.000;2023-05-02T13:20:10;2.70;;;2.50;;
58992;SDS011;44782;0.000;0.000;2023-05-02T13:22:26;2.87;;;2.67;;
58992;SDS011;44782;0.000;0.000;2023-05-02T13:24:42;3.03;;;2.83;;
58992;SDS011;44782;0.000;0.000;2023-05-02T13:26:57;3.20;;;3.00;;
58992;SDS011;44782;0.000;0.000;2023-05-02T13:29:16;3.13;;;2.93;;
58992;SDS011;44782;0.000;0.000;2023-05-02T13:31:31;3.10;;;2.90;;
58992;SDS011;44782;0.000;0.000;2023-05-02T13:33:47;2.90;;;2.70;;
58992;SDS011;44782;0.000;0.000;2023-05-02T13:36:03;3.03;;;2.83;;
58992;SDS011;44782;0.000;0.000;2023-05-02T13:38:19;3.10;;;2.83;;
58992;SDS011;44782;0.000;0.000;2023-05-02T13:40:34;2.90;;;2.70;;
58992;SDS011;44782;0.000;0.000;2023-05-02T13:42:50;2.80;;;2.60;;
58992;SDS011;44782;0.000;0.000;2023-05-02T13:45:06;2.77;;;2.57;;
58992;SDS011;44782;0.000;0.000;2023-05-02T13:47:22;2.97;;;2.73;;
58992;SDS011;44782;0.000;0.000;2023-05-02T13:49:38;2.63;;;2.43;;
58992;SDS011;44782;0.000;0.000;2023-05-02T13:51:53;2.60;;;2.40;;
58992;SDS011;44782;0.000;0.000;2023-05-02T13:54:09;2.90;;;2.70;;
58992;SDS011;44782;0.000;0.000;2023-05-02T13:56:25;2.77;;;2.57;;
58992;SDS011;44782;0.000;0.000;2023-05-02T13:58:41;2.80;;;2.60;;
58992;SDS011;44782;0.000;0.000;2023-05-02T14:00:59;2.60;;;2.40;;
58992;SDS011;44782;0.000;0.000;2023-05-02T14:03:16;2.30;;;2.20;;
58992;SDS011;44782;0.000;0.000;2023-05-02T14:05:31;2.40;;;2.30;;
58992;SDS011;44782;0.000;0.000;2023-05-02T14:07:47;2.60;;;2.40;;
58992;SDS011;44782;0.000;0.000;2023-05-02T14:10:03;2.60;;;2.40;;
58992;SDS011;44782;0.000;0.000;2023-05-02T14:12:19;2.60;;;2.40;;
58992;SDS011;44782;0.000;0.000;2023-05-02T14:14:34;2.60;;;2.40;;
58992;SDS011;44782;0.000;0.000;2023-05-02T14:16:52;2.50;;;2.30;;
58992;SDS011;44782;0.000;0.000;2023-05-02T14:19:07;2.80;;;2.60;;
58992;SDS011;44782;0.000;0.000;2023-05-02T14:21:23;2.60;;;2.40;;
58992;SDS011;44782;0.000;0.000;2023-05-02T14:23:41;2.50;;;2.30;;
58992;SDS011;44782;0.000;0.000;2023-05-02T14:25:57;2.60;;;2.43;;
58992;SDS011;44782;0.000;0.000;2023-05-02T14:28:12;2.47;;;2.27;;
58992;SDS011;44782;0.000;0.000;2023-05-02T14:30:28;2.30;;;2.17;;